sensor_id;sensor_type;location;lat;lon;timestamp;temperature;humidity
42135;DHT22;28312;43.460;11.810;2023-02-05T00:02:23;6.40;55.60
42135;DHT22;28312;43.460;11.810;2023-02-05T00:06:26;6.40;55.50
42135;DHT22;28312;43.460;11.810;2023-02-05T00:10:30;6.30;55.50
42135;DHT22;28312;43.460;11.810;2023-02-05T00:14:33;6.30;55.40
42135;DHT22;28312;43.460;11.810;2023-02-05T00:18:36;6.30;55.40
42135;DHT22;28312;43.460;11.810;2023-02-05T00:22:40;6.20;55.50
42135;DHT22;28312;43.460;11.810;2023-02-05T00:26:43;6.20;55.40
42135;DHT22;28312;43.460;11.810;2023-02-05T00:30:47;6.20;55.50
42135;DHT22;28312;43.460;11.810;2023-02-05T00:34:51;6.20;55.30
42135;DHT22;28312;43.460;11.810;2023-02-05T00:38:54;6.20;55.30
42135;DHT22;28312;43.460;11.810;2023-02-05T00:42:58;6.10;55.20
42135;DHT22;28312;43.460;11.810;2023-02-05T00:47:01;6.10;55.10
42135;DHT22;28312;43.460;11.810;2023-02-05T00:51:05;6.00;55.10
42135;DHT22;28312;43.460;11.810;2023-02-05T00:55:08;5.90;55.20
42135;DHT22;28312;43.460;11.810;2023-02-05T00:59:12;5.90;55.20
42135;DHT22;28312;43.460;11.810;2023-02-05T01:03:16;5.80;55.20
42135;DHT22;28312;43.460;11.810;2023-02-05T01:07:19;5.80;55.10
42135;DHT22;28312;43.460;11.810;2023-02-05T01:11:23;5.70;55.00
42135;DHT22;28312;43.460;11.810;2023-02-05T01:15:26;5.70;54.90
42135;DHT22;28312;43.460;11.810;2023-02-05T01:19:31;5.50;54.90
42135;DHT22;28312;43.460;11.810;2023-02-05T01:23:34;5.50;55.00
42135;DHT22;28312;43.460;11.810;2023-02-05T01:27:39;5.40;54.90
42135;DHT22;28312;43.460;11.810;2023-02-05T01:31:42;5.30;54.70
42135;DHT22;28312;43.460;11.810;2023-02-05T01:35:45;5.00;54.70
42135;DHT22;28312;43.460;11.810;2023-02-05T01:39:49;4.80;54.80
42135;DHT22;28312;43.460;11.810;2023-02-05T01:48:08;4.30;54.80
42135;DHT22;28312;43.460;11.810;2023-02-05T01:52:15;4.20;54.80
42135;DHT22;28312;43.460;11.810;2023-02-05T01:56:25;4.00;55.10
42135;DHT22;28312;43.460;11.810;2023-02-05T02:00:30;3.80;55.20
42135;DHT22;28312;43.460;11.810;2023-02-05T02:04:42;3.70;55.50
42135;DHT22;28312;43.460;11.810;2023-02-05T02:08:47;3.70;55.50
42135;DHT22;28312;43.460;11.810;2023-02-05T02:12:51;3.60;55.40
42135;DHT22;28312;43.460;11.810;2023-02-05T02:16:56;3.40;55.30
42135;DHT22;28312;43.460;11.810;2023-02-05T02:34:03;2.70;55.60
42135;DHT22;28312;43.460;11.810;2023-02-05T02:38:26;2.50;55.60
42135;DHT22;28312;43.460;11.810;2023-02-05T02:42:38;2.40;55.70
42135;DHT22;28312;43.460;11.810;2023-02-05T02:46:50;2.20;55.80
42135;DHT22;28312;43.460;11.810;2023-02-05T02:50:54;2.00;55.90
42135;DHT22;28312;43.460;11.810;2023-02-05T02:54:59;1.80;56.00
42135;DHT22;28312;43.460;11.810;2023-02-05T02:59:13;1.70;56.10
42135;DHT22;28312;43.460;11.810;2023-02-05T03:03:20;1.60;56.20
42135;DHT22;28312;43.460;11.810;2023-02-05T03:07:38;1.50;56.30
42135;DHT22;28312;43.460;11.810;2023-02-05T03:11:44;1.50;56.20
42135;DHT22;28312;43.460;11.810;2023-02-05T03:15:48;1.40;56.30
42135;DHT22;28312;43.460;11.810;2023-02-05T03:20:21;1.50;56.50
42135;DHT22;28312;43.460;11.810;2023-02-05T03:24:26;1.70;56.80
42135;DHT22;28312;43.460;11.810;2023-02-05T03:28:30;2.10;56.80
42135;DHT22;28312;43.460;11.810;2023-02-05T03:37:39;2.50;56.50
42135;DHT22;28312;43.460;11.810;2023-02-05T03:46:32;2.70;56.20
42135;DHT22;28312;43.460;11.810;2023-02-05T03:50:54;2.80;56.00
42135;DHT22;28312;43.460;11.810;2023-02-05T03:55:15;2.70;55.80
42135;DHT22;28312;43.460;11.810;2023-02-05T03:59:21;2.50;55.80
42135;DHT22;28312;43.460;11.810;2023-02-05T04:03:26;2.30;55.90
42135;DHT22;28312;43.460;11.810;2023-02-05T04:07:30;2.20;55.90
42135;DHT22;28312;43.460;11.810;2023-02-05T04:11:34;2.00;56.00
42135;DHT22;28312;43.460;11.810;2023-02-05T04:15:39;1.80;56.00
42135;DHT22;28312;43.460;11.810;2023-02-05T04:19:45;1.70;56.00
42135;DHT22;28312;43.460;11.810;2023-02-05T04:23:50;1.50;56.10
42135;DHT22;28312;43.460;11.810;2023-02-05T04:27:54;1.50;56.30
42135;DHT22;28312;43.460;11.810;2023-02-05T04:31:58;1.40;56.30
42135;DHT22;28312;43.460;11.810;2023-02-05T04:36:03;1.30;56.40
42135;DHT22;28312;43.460;11.810;2023-02-05T04:40:08;1.20;56.40
42135;DHT22;28312;43.460;11.810;2023-02-05T04:44:11;1.10;56.50
42135;DHT22;28312;43.460;11.810;2023-02-05T04:48:16;1.00;56.50
42135;DHT22;28312;43.460;11.810;2023-02-05T04:52:19;0.90;56.50
42135;DHT22;28312;43.460;11.810;2023-02-05T04:56:23;0.80;56.60
42135;DHT22;28312;43.460;11.810;2023-02-05T05:00:26;0.70;56.70
42135;DHT22;28312;43.460;11.810;2023-02-05T05:04:29;0.70;56.80
42135;DHT22;28312;43.460;11.810;2023-02-05T05:08:34;0.60;56.80
42135;DHT22;28312;43.460;11.810;2023-02-05T05:12:38;0.60;56.80
42135;DHT22;28312;43.460;11.810;2023-02-05T05:16:41;0.50;56.80
42135;DHT22;28312;43.460;11.810;2023-02-05T05:20:45;0.50;56.90
42135;DHT22;28312;43.460;11.810;2023-02-05T05:24:50;0.50;56.90
42135;DHT22;28312;43.460;11.810;2023-02-05T05:28:56;0.40;56.90
42135;DHT22;28312;43.460;11.810;2023-02-05T05:33:00;0.20;56.90
42135;DHT22;28312;43.460;11.810;2023-02-05T05:37:03;0.10;57.00
42135;DHT22;28312;43.460;11.810;2023-02-05T05:41:09;0.10;57.10
42135;DHT22;28312;43.460;11.810;2023-02-05T05:45:35;0.10;57.10
42135;DHT22;28312;43.460;11.810;2023-02-05T05:49:38;0.20;57.20
42135;DHT22;28312;43.460;11.810;2023-02-05T05:53:41;0.10;57.20
42135;DHT22;28312;43.460;11.810;2023-02-05T05:57:45;0.10;57.20
42135;DHT22;28312;43.460;11.810;2023-02-05T06:01:49;0.10;57.20
42135;DHT22;28312;43.460;11.810;2023-02-05T06:05:53;0.10;57.30
42135;DHT22;28312;43.460;11.810;2023-02-05T06:09:56;0.20;57.30
42135;DHT22;28312;43.460;11.810;2023-02-05T06:13:59;0.20;57.20
42135;DHT22;28312;43.460;11.810;2023-02-05T06:18:04;0.20;57.20
42135;DHT22;28312;43.460;11.810;2023-02-05T06:22:08;0.10;57.30
42135;DHT22;28312;43.460;11.810;2023-02-05T06:26:11;0.20;57.40
42135;DHT22;28312;43.460;11.810;2023-02-05T06:30:14;0.30;57.60
42135;DHT22;28312;43.460;11.810;2023-02-05T06:34:18;0.50;57.60
42135;DHT22;28312;43.460;11.810;2023-02-05T06:38:21;0.60;57.60
42135;DHT22;28312;43.460;11.810;2023-02-05T06:42:25;0.70;57.50
42135;DHT22;28312;43.460;11.810;2023-02-05T06:46:28;0.80;57.50
42135;DHT22;28312;43.460;11.810;2023-02-05T06:50:32;0.90;57.50
42135;DHT22;28312;43.460;11.810;2023-02-05T06:54:35;1.00;57.50
42135;DHT22;28312;43.460;11.810;2023-02-05T06:58:42;1.10;57.50
42135;DHT22;28312;43.460;11.810;2023-02-05T07:02:45;1.20;57.60
42135;DHT22;28312;43.460;11.810;2023-02-05T07:06:49;1.30;57.60
42135;DHT22;28312;43.460;11.810;2023-02-05T07:10:52;1.50;58.00
42135;DHT22;28312;43.460;11.810;2023-02-05T07:14:55;1.80;58.30
42135;DHT22;28312;43.460;11.810;2023-02-05T07:18:59;2.00;58.10
42135;DHT22;28312;43.460;11.810;2023-02-05T07:23:03;2.30;58.30
42135;DHT22;28312;43.460;11.810;2023-02-05T07:27:10;2.80;58.80
42135;DHT22;28312;43.460;11.810;2023-02-05T07:31:20;3.30;58.20
42135;DHT22;28312;43.460;11.810;2023-02-05T07:35:24;3.50;57.70
42135;DHT22;28312;43.460;11.810;2023-02-05T07:39:27;3.70;58.10
42135;DHT22;28312;43.460;11.810;2023-02-05T07:43:31;4.70;60.60
42135;DHT22;28312;43.460;11.810;2023-02-05T07:47:34;6.50;60.20
42135;DHT22;28312;43.460;11.810;2023-02-05T07:51:39;8.30;59.00
42135;DHT22;28312;43.460;11.810;2023-02-05T07:55:42;9.60;57.40
42135;DHT22;28312;43.460;11.810;2023-02-05T07:59:46;10.60;56.60
42135;DHT22;28312;43.460;11.810;2023-02-05T08:03:49;11.20;55.60
42135;DHT22;28312;43.460;11.810;2023-02-05T08:07:52;12.20;55.30
42135;DHT22;28312;43.460;11.810;2023-02-05T08:11:56;13.00;53.00
42135;DHT22;28312;43.460;11.810;2023-02-05T08:16:04;13.20;53.20
42135;DHT22;28312;43.460;11.810;2023-02-05T08:20:08;13.70;51.80
42135;DHT22;28312;43.460;11.810;2023-02-05T08:24:12;13.80;51.80
42135;DHT22;28312;43.460;11.810;2023-02-05T08:28:15;14.30;51.40
42135;DHT22;28312;43.460;11.810;2023-02-05T08:32:19;14.70;49.90
42135;DHT22;28312;43.460;11.810;2023-02-05T08:36:22;14.90;50.00
42135;DHT22;28312;43.460;11.810;2023-02-05T08:40:26;15.30;50.00
42135;DHT22;28312;43.460;11.810;2023-02-05T08:44:29;15.70;48.50
42135;DHT22;28312;43.460;11.810;2023-02-05T08:48:33;15.50;47.50
42135;DHT22;28312;43.460;11.810;2023-02-05T08:52:36;15.70;47.50
42135;DHT22;28312;43.460;11.810;2023-02-05T08:56:44;15.70;45.40
42135;DHT22;28312;43.460;11.810;2023-02-05T09:00:47;15.20;45.00
42135;DHT22;28312;43.460;11.810;2023-02-05T09:04:51;15.20;45.80
42135;DHT22;28312;43.460;11.810;2023-02-05T09:09:11;15.40;44.30
42135;DHT22;28312;43.460;11.810;2023-02-05T09:13:14;15.50;43.50
42135;DHT22;28312;43.460;11.810;2023-02-05T09:17:19;15.20;42.90
42135;DHT22;28312;43.460;11.810;2023-02-05T09:21:24;15.20;43.10
42135;DHT22;28312;43.460;11.810;2023-02-05T09:25:27;15.00;42.50
42135;DHT22;28312;43.460;11.810;2023-02-05T09:29:32;14.90;43.20
42135;DHT22;28312;43.460;11.810;2023-02-05T09:33:38;15.00;41.60
42135;DHT22;28312;43.460;11.810;2023-02-05T09:37:43;14.70;41.30
42135;DHT22;28312;43.460;11.810;2023-02-05T09:50:42;15.20;41.60
42135;DHT22;28312;43.460;11.810;2023-02-05T09:54:50;15.10;41.00
42135;DHT22;28312;43.460;11.810;2023-02-05T09:58:57;14.80;40.60
42135;DHT22;28312;43.460;11.810;2023-02-05T10:03:30;14.70;40.70
42135;DHT22;28312;43.460;11.810;2023-02-05T10:07:54;14.60;40.90
42135;DHT22;28312;43.460;11.810;2023-02-05T10:12:25;15.00;41.80
42135;DHT22;28312;43.460;11.810;2023-02-05T10:17:01;15.50;40.80
42135;DHT22;28312;43.460;11.810;2023-02-05T10:30:20;14.70;39.80
42135;DHT22;28312;43.460;11.810;2023-02-05T10:38:49;14.90;40.40
42135;DHT22;28312;43.460;11.810;2023-02-05T10:43:18;15.10;40.50
42135;DHT22;28312;43.460;11.810;2023-02-05T10:47:37;15.10;39.50
42135;DHT22;28312;43.460;11.810;2023-02-05T10:51:43;14.90;39.60
42135;DHT22;28312;43.460;11.810;2023-02-05T10:55:47;15.00;39.80
42135;DHT22;28312;43.460;11.810;2023-02-05T11:00:01;15.00;39.20
42135;DHT22;28312;43.460;11.810;2023-02-05T11:04:11;14.70;38.80
42135;DHT22;28312;43.460;11.810;2023-02-05T11:08:44;14.30;38.80
42135;DHT22;28312;43.460;11.810;2023-02-05T11:13:19;14.30;40.10
42135;DHT22;28312;43.460;11.810;2023-02-05T11:17:35;14.50;40.00
42135;DHT22;28312;43.460;11.810;2023-02-05T11:21:59;14.90;40.30
42135;DHT22;28312;43.460;11.810;2023-02-05T11:26:24;15.10;39.50
42135;DHT22;28312;43.460;11.810;2023-02-05T11:30:34;14.90;39.60
42135;DHT22;28312;43.460;11.810;2023-02-05T11:35:23;15.00;39.00
42135;DHT22;28312;43.460;11.810;2023-02-05T11:39:35;14.70;39.00
42135;DHT22;28312;43.460;11.810;2023-02-05T11:43:49;14.80;39.70
42135;DHT22;28312;43.460;11.810;2023-02-05T11:47:53;15.00;39.80
42135;DHT22;28312;43.460;11.810;2023-02-05T11:51:57;15.20;39.10
42135;DHT22;28312;43.460;11.810;2023-02-05T11:56:04;15.10;39.10
42135;DHT22;28312;43.460;11.810;2023-02-05T12:04:19;15.10;39.20
42135;DHT22;28312;43.460;11.810;2023-02-05T12:13:11;15.60;39.90
42135;DHT22;28312;43.460;11.810;2023-02-05T12:21:48;15.30;38.80
42135;DHT22;28312;43.460;11.810;2023-02-05T12:42:50;14.70;39.00
42135;DHT22;28312;43.460;11.810;2023-02-05T12:51:11;14.50;38.90
42135;DHT22;28312;43.460;11.810;2023-02-05T12:59:49;14.40;39.00
42135;DHT22;28312;43.460;11.810;2023-02-05T13:03:57;14.40;39.20
42135;DHT22;28312;43.460;11.810;2023-02-05T13:08:14;14.40;39.00
42135;DHT22;28312;43.460;11.810;2023-02-05T13:12:22;14.30;39.60
42135;DHT22;28312;43.460;11.810;2023-02-05T13:16:53;14.40;39.70
42135;DHT22;28312;43.460;11.810;2023-02-05T13:21:04;14.20;38.70
42135;DHT22;28312;43.460;11.810;2023-02-05T13:25:44;13.90;39.40
42135;DHT22;28312;43.460;11.810;2023-02-05T13:30:18;13.90;40.00
42135;DHT22;28312;43.460;11.810;2023-02-05T13:34:24;14.20;40.70
42135;DHT22;28312;43.460;11.810;2023-02-05T13:43:27;14.40;39.70
42135;DHT22;28312;43.460;11.810;2023-02-05T13:47:49;14.10;39.50
42135;DHT22;28312;43.460;11.810;2023-02-05T14:00:27;13.10;40.50
42135;DHT22;28312;43.460;11.810;2023-02-05T14:04:43;13.20;40.10
42135;DHT22;28312;43.460;11.810;2023-02-05T14:29:43;13.70;41.00
42135;DHT22;28312;43.460;11.810;2023-02-05T14:33:47;13.60;40.30
42135;DHT22;28312;43.460;11.810;2023-02-05T14:37:50;13.30;40.20
42135;DHT22;28312;43.460;11.810;2023-02-05T14:41:56;12.70;39.70
42135;DHT22;28312;43.460;11.810;2023-02-05T14:50:33;11.80;41.10
42135;DHT22;28312;43.460;11.810;2023-02-05T14:54:46;11.60;40.90
42135;DHT22;28312;43.460;11.810;2023-02-05T14:58:58;11.20;40.70
42135;DHT22;28312;43.460;11.810;2023-02-05T15:07:24;10.30;41.30
42135;DHT22;28312;43.460;11.810;2023-02-05T15:20:22;9.30;42.00
42135;DHT22;28312;43.460;11.810;2023-02-05T15:24:29;9.10;42.30
42135;DHT22;28312;43.460;11.810;2023-02-05T15:28:39;8.90;42.50
42135;DHT22;28312;43.460;11.810;2023-02-05T15:32:53;8.70;42.80
42135;DHT22;28312;43.460;11.810;2023-02-05T15:37:10;8.50;43.00
42135;DHT22;28312;43.460;11.810;2023-02-05T15:41:15;8.30;43.30
42135;DHT22;28312;43.460;11.810;2023-02-05T15:45:28;8.20;43.60
42135;DHT22;28312;43.460;11.810;2023-02-05T15:49:38;8.20;43.70
42135;DHT22;28312;43.460;11.810;2023-02-05T15:53:46;8.00;43.70
42135;DHT22;28312;43.460;11.810;2023-02-05T15:57:55;7.80;43.80
42135;DHT22;28312;43.460;11.810;2023-02-05T16:02:05;7.70;43.90
42135;DHT22;28312;43.460;11.810;2023-02-05T16:06:20;7.60;43.90
42135;DHT22;28312;43.460;11.810;2023-02-05T16:10:26;7.40;44.10
42135;DHT22;28312;43.460;11.810;2023-02-05T16:14:33;7.20;44.40
42135;DHT22;28312;43.460;11.810;2023-02-05T16:18:48;7.00;44.40
42135;DHT22;28312;43.460;11.810;2023-02-05T16:22:57;6.80;44.30
42135;DHT22;28312;43.460;11.810;2023-02-05T16:27:11;6.70;44.20
42135;DHT22;28312;43.460;11.810;2023-02-05T16:31:19;6.60;44.20
42135;DHT22;28312;43.460;11.810;2023-02-05T16:35:30;6.40;44.30
42135;DHT22;28312;43.460;11.810;2023-02-05T16:39:45;6.20;44.30
42135;DHT22;28312;43.460;11.810;2023-02-05T16:43:51;6.00;44.40
42135;DHT22;28312;43.460;11.810;2023-02-05T16:48:20;5.90;44.60
42135;DHT22;28312;43.460;11.810;2023-02-05T16:52:32;5.80;44.60
42135;DHT22;28312;43.460;11.810;2023-02-05T16:56:46;5.70;44.80
42135;DHT22;28312;43.460;11.810;2023-02-05T17:00:59;5.60;45.00
42135;DHT22;28312;43.460;11.810;2023-02-05T17:05:23;5.50;45.40
42135;DHT22;28312;43.460;11.810;2023-02-05T17:09:36;5.40;45.60
42135;DHT22;28312;43.460;11.810;2023-02-05T17:13:44;5.40;45.70
42135;DHT22;28312;43.460;11.810;2023-02-05T17:22:22;5.20;45.90
42135;DHT22;28312;43.460;11.810;2023-02-05T17:26:31;5.20;45.90
42135;DHT22;28312;43.460;11.810;2023-02-05T17:30:35;5.10;46.00
42135;DHT22;28312;43.460;11.810;2023-02-05T17:34:39;5.00;46.10
42135;DHT22;28312;43.460;11.810;2023-02-05T17:38:44;5.00;46.30
42135;DHT22;28312;43.460;11.810;2023-02-05T17:42:47;4.90;46.50
42135;DHT22;28312;43.460;11.810;2023-02-05T17:46:50;4.90;46.60
42135;DHT22;28312;43.460;11.810;2023-02-05T17:50:56;4.80;46.50
42135;DHT22;28312;43.460;11.810;2023-02-05T17:55:05;4.80;46.50
42135;DHT22;28312;43.460;11.810;2023-02-05T17:59:14;4.70;46.30
42135;DHT22;28312;43.460;11.810;2023-02-05T18:03:18;4.50;46.30
42135;DHT22;28312;43.460;11.810;2023-02-05T18:07:28;4.50;46.20
42135;DHT22;28312;43.460;11.810;2023-02-05T18:11:32;4.30;46.30
42135;DHT22;28312;43.460;11.810;2023-02-05T18:15:36;4.20;46.20
42135;DHT22;28312;43.460;11.810;2023-02-05T18:19:39;4.20;46.20
42135;DHT22;28312;43.460;11.810;2023-02-05T18:23:43;3.90;46.10
42135;DHT22;28312;43.460;11.810;2023-02-05T18:27:46;3.60;46.20
42135;DHT22;28312;43.460;11.810;2023-02-05T18:31:50;3.30;46.30
42135;DHT22;28312;43.460;11.810;2023-02-05T18:35:59;3.20;46.30
42135;DHT22;28312;43.460;11.810;2023-02-05T18:40:04;3.20;46.50
42135;DHT22;28312;43.460;11.810;2023-02-05T18:44:08;3.10;46.60
42135;DHT22;28312;43.460;11.810;2023-02-05T18:48:14;3.00;46.60
42135;DHT22;28312;43.460;11.810;2023-02-05T18:52:18;2.90;46.60
42135;DHT22;28312;43.460;11.810;2023-02-05T18:56:24;2.80;46.70
42135;DHT22;28312;43.460;11.810;2023-02-05T19:00:28;2.70;46.60
42135;DHT22;28312;43.460;11.810;2023-02-05T19:04:35;2.60;46.60
42135;DHT22;28312;43.460;11.810;2023-02-05T19:08:39;2.40;46.70
42135;DHT22;28312;43.460;11.810;2023-02-05T19:12:44;2.30;46.80
42135;DHT22;28312;43.460;11.810;2023-02-05T19:16:49;2.20;46.80
42135;DHT22;28312;43.460;11.810;2023-02-05T19:20:54;2.00;46.90
42135;DHT22;28312;43.460;11.810;2023-02-05T19:24:58;1.90;46.80
42135;DHT22;28312;43.460;11.810;2023-02-05T19:29:06;1.80;46.80
42135;DHT22;28312;43.460;11.810;2023-02-05T19:33:11;1.70;46.80
42135;DHT22;28312;43.460;11.810;2023-02-05T19:37:15;1.40;46.90
42135;DHT22;28312;43.460;11.810;2023-02-05T19:41:24;1.20;47.10
42135;DHT22;28312;43.460;11.810;2023-02-05T19:45:28;1.10;47.10
42135;DHT22;28312;43.460;11.810;2023-02-05T19:49:31;0.90;47.20
42135;DHT22;28312;43.460;11.810;2023-02-05T19:53:36;0.80;47.30
42135;DHT22;28312;43.460;11.810;2023-02-05T19:57:41;0.80;47.20
42135;DHT22;28312;43.460;11.810;2023-02-05T20:01:50;0.70;47.20
42135;DHT22;28312;43.460;11.810;2023-02-05T20:05:55;0.60;47.30
42135;DHT22;28312;43.460;11.810;2023-02-05T20:10:06;0.40;47.40
42135;DHT22;28312;43.460;11.810;2023-02-05T20:14:10;0.30;47.50
42135;DHT22;28312;43.460;11.810;2023-02-05T20:18:16;0.20;47.60
42135;DHT22;28312;43.460;11.810;2023-02-05T20:22:21;0.00;47.80
42135;DHT22;28312;43.460;11.810;2023-02-05T20:26:25;0.00;47.80
42135;DHT22;28312;43.460;11.810;2023-02-05T20:30:30;-3276.60;47.90
42135;DHT22;28312;43.460;11.810;2023-02-05T20:34:52;-3276.40;48.10
42135;DHT22;28312;43.460;11.810;2023-02-05T20:38:57;-3276.40;48.10
42135;DHT22;28312;43.460;11.810;2023-02-05T20:43:01;-3276.30;48.20
42135;DHT22;28312;43.460;11.810;2023-02-05T20:47:08;-3276.30;48.10
42135;DHT22;28312;43.460;11.810;2023-02-05T20:51:15;-3276.20;48.00
42135;DHT22;28312;43.460;11.810;2023-02-05T20:55:20;-3276.20;48.00
42135;DHT22;28312;43.460;11.810;2023-02-05T20:59:26;-3276.00;48.20
42135;DHT22;28312;43.460;11.810;2023-02-05T21:03:30;-3275.90;48.20
42135;DHT22;28312;43.460;11.810;2023-02-05T21:07:34;-3275.80;48.30
42135;DHT22;28312;43.460;11.810;2023-02-05T21:11:38;-3275.70;48.50
42135;DHT22;28312;43.460;11.810;2023-02-05T21:15:42;-3275.60;48.60
42135;DHT22;28312;43.460;11.810;2023-02-05T21:19:53;-3275.70;48.70
42135;DHT22;28312;43.460;11.810;2023-02-05T21:24:04;-3275.70;48.70
42135;DHT22;28312;43.460;11.810;2023-02-05T21:28:08;-3275.60;48.70
42135;DHT22;28312;43.460;11.810;2023-02-05T21:32:12;-3275.60;48.80
42135;DHT22;28312;43.460;11.810;2023-02-05T21:36:15;-3275.40;48.80
42135;DHT22;28312;43.460;11.810;2023-02-05T21:40:21;-3275.40;48.90
42135;DHT22;28312;43.460;11.810;2023-02-05T21:44:24;-3275.30;48.80
42135;DHT22;28312;43.460;11.810;2023-02-05T21:48:28;-3275.20;48.90
42135;DHT22;28312;43.460;11.810;2023-02-05T21:52:31;-3275.10;48.90
42135;DHT22;28312;43.460;11.810;2023-02-05T21:56:37;-3275.00;49.00
42135;DHT22;28312;43.460;11.810;2023-02-05T22:00:40;-3275.00;49.00
42135;DHT22;28312;43.460;11.810;2023-02-05T22:04:44;-3274.90;49.10
42135;DHT22;28312;43.460;11.810;2023-02-05T22:08:47;-3274.90;49.10
42135;DHT22;28312;43.460;11.810;2023-02-05T22:12:52;-3274.90;49.10
42135;DHT22;28312;43.460;11.810;2023-02-05T22:16:56;-3274.90;49.20
42135;DHT22;28312;43.460;11.810;2023-02-05T22:21:09;-3274.80;49.30
42135;DHT22;28312;43.460;11.810;2023-02-05T22:25:14;-3274.80;49.30
42135;DHT22;28312;43.460;11.810;2023-02-05T22:29:19;-3274.70;49.30
42135;DHT22;28312;43.460;11.810;2023-02-05T22:33:23;-3274.70;49.30
42135;DHT22;28312;43.460;11.810;2023-02-05T22:37:27;-3274.70;49.40
42135;DHT22;28312;43.460;11.810;2023-02-05T22:41:36;-3274.60;49.40
42135;DHT22;28312;43.460;11.810;2023-02-05T22:45:39;-3274.50;49.50
42135;DHT22;28312;43.460;11.810;2023-02-05T22:49:43;-3274.50;49.60
42135;DHT22;28312;43.460;11.810;2023-02-05T22:53:48;-3274.60;49.90
42135;DHT22;28312;43.460;11.810;2023-02-05T22:57:52;-3274.80;50.10
42135;DHT22;28312;43.460;11.810;2023-02-05T23:01:55;-3275.10;50.10
42135;DHT22;28312;43.460;11.810;2023-02-05T23:05:59;-3275.40;50.00
42135;DHT22;28312;43.460;11.810;2023-02-05T23:10:03;-3275.60;50.10
42135;DHT22;28312;43.460;11.810;2023-02-05T23:14:07;-3276.10;50.30
42135;DHT22;28312;43.460;11.810;2023-02-05T23:18:10;-3276.50;50.20
42135;DHT22;28312;43.460;11.810;2023-02-05T23:22:13;0.00;50.20
42135;DHT22;28312;43.460;11.810;2023-02-05T23:26:19;0.20;50.00
42135;DHT22;28312;43.460;11.810;2023-02-05T23:30:23;0.50;50.00
42135;DHT22;28312;43.460;11.810;2023-02-05T23:34:27;0.70;49.90
42135;DHT22;28312;43.460;11.810;2023-02-05T23:38:33;0.90;49.80
42135;DHT22;28312;43.460;11.810;2023-02-05T23:42:38;1.10;49.70
42135;DHT22;28312;43.460;11.810;2023-02-05T23:46:43;1.10;49.50
42135;DHT22;28312;43.460;11.810;2023-02-05T23:50:48;1.10;49.40
42135;DHT22;28312;43.460;11.810;2023-02-05T23:54:54;1.10;49.40
42135;DHT22;28312;43.460;11.810;2023-02-05T23:58:57;1.00;49.20
